createdAt,value
2018-12-19T00:00:47.183Z,13.73
2018-12-19T00:03:14.664Z,14.00
2018-12-19T00:05:42.078Z,13.90
2018-12-19T00:08:09.492Z,17.47
2018-12-19T00:10:36.904Z,13.97
2018-12-19T00:13:04.347Z,13.07
2018-12-19T00:15:31.753Z,14.00
2018-12-19T00:17:59.157Z,13.83
2018-12-19T00:20:26.571Z,13.07
2018-12-19T00:22:53.980Z,19.63
2018-12-19T00:25:21.399Z,13.93
2018-12-19T00:27:48.813Z,13.57
2018-12-19T00:30:16.236Z,18.87
2018-12-19T00:32:43.739Z,13.33
2018-12-19T00:35:11.187Z,13.73
2018-12-19T00:37:38.601Z,14.37
2018-12-19T00:40:06.151Z,14.93
2018-12-19T00:42:33.556Z,16.13
2018-12-19T00:45:00.985Z,13.80
2018-12-19T00:47:28.408Z,13.90
2018-12-19T00:49:55.806Z,14.07
2018-12-19T00:52:23.248Z,13.83
2018-12-19T00:54:50.656Z,13.77
2018-12-19T00:57:18.081Z,13.00
2018-12-19T00:59:45.497Z,19.13
2018-12-19T01:02:12.924Z,13.53
2018-12-19T01:04:40.329Z,14.40
2018-12-19T01:07:07.749Z,15.27
2018-12-19T01:09:35.152Z,13.33
2018-12-19T01:12:02.592Z,13.20
2018-12-19T01:14:30.001Z,13.23
2018-12-19T01:16:57.411Z,13.67
2018-12-19T01:19:24.840Z,13.50
2018-12-19T01:21:52.239Z,13.27
2018-12-19T01:24:19.667Z,12.97
2018-12-19T01:26:47.132Z,12.47
2018-12-19T01:29:14.555Z,12.47
2018-12-19T01:31:41.965Z,10.97
2018-12-19T01:34:09.394Z,11.77
2018-12-19T01:36:36.849Z,11.20
2018-12-19T01:39:06.200Z,11.33
2018-12-19T01:41:33.768Z,11.90
2018-12-19T01:44:01.188Z,11.57
2018-12-19T01:46:28.705Z,12.13
2018-12-19T01:48:56.173Z,11.20
2018-12-19T01:51:23.655Z,11.80
2018-12-19T01:53:51.180Z,11.43
2018-12-19T01:56:18.779Z,11.20
2018-12-19T01:58:46.374Z,11.87
2018-12-19T02:01:13.922Z,11.37
2018-12-19T02:03:41.476Z,12.10
2018-12-19T02:06:09.020Z,10.63
2018-12-19T02:08:36.491Z,11.73
2018-12-19T02:11:04.083Z,12.00
2018-12-19T02:13:31.629Z,11.67
2018-12-19T02:15:59.204Z,12.10
2018-12-19T02:18:26.721Z,10.40
2018-12-19T02:20:54.317Z,12.23
2018-12-19T02:23:21.892Z,10.77
2018-12-19T02:25:49.432Z,10.70
2018-12-19T02:28:16.985Z,12.00
2018-12-19T02:30:44.519Z,12.00
2018-12-19T02:33:12.093Z,11.23
2018-12-19T02:35:39.742Z,9.80
2018-12-19T02:38:07.293Z,11.43
2018-12-19T02:40:34.875Z,11.30
2018-12-19T02:43:02.395Z,11.77
2018-12-19T02:45:29.953Z,11.97
2018-12-19T02:47:57.507Z,11.87
2018-12-19T02:50:25.060Z,12.30
2018-12-19T02:52:52.645Z,11.90
2018-12-19T02:55:20.153Z,13.37
2018-12-19T02:57:47.799Z,12.13
2018-12-19T03:00:15.406Z,13.80
2018-12-19T03:02:43.300Z,13.27
2018-12-19T03:05:10.814Z,13.67
2018-12-19T03:07:38.278Z,12.60
2018-12-19T03:10:05.859Z,12.30
2018-12-19T03:12:33.274Z,13.70
2018-12-19T03:15:00.698Z,13.40
2018-12-19T03:17:28.109Z,12.23
2018-12-19T03:19:55.524Z,13.90
2018-12-19T03:22:22.934Z,12.77
2018-12-19T03:24:50.360Z,13.70
2018-12-19T03:27:17.777Z,14.07
2018-12-19T03:29:45.201Z,13.50
2018-12-19T03:32:12.619Z,13.17
2018-12-19T03:34:40.144Z,13.37
2018-12-19T03:37:07.555Z,13.23
2018-12-19T03:39:34.984Z,12.37
2018-12-19T03:42:02.383Z,12.13
2018-12-19T03:44:29.824Z,11.97
2018-12-19T03:46:57.238Z,12.53
2018-12-19T03:49:24.741Z,12.37
2018-12-19T03:51:52.214Z,13.33
2018-12-19T03:54:19.996Z,13.67
2018-12-19T03:56:47.867Z,12.80
2018-12-19T03:59:15.282Z,12.63
2018-12-19T04:01:42.683Z,12.97
2018-12-19T04:04:10.110Z,12.97
2018-12-19T04:06:37.518Z,12.30
2018-12-19T04:09:06.381Z,13.33
2018-12-19T04:11:33.878Z,13.43
2018-12-19T04:14:01.316Z,14.73
2018-12-19T04:16:28.810Z,15.37
2018-12-19T04:18:56.214Z,16.97
2018-12-19T04:21:23.635Z,16.60
2018-12-19T04:23:51.051Z,17.50
2018-12-19T04:26:18.461Z,18.53
2018-12-19T04:28:46.140Z,20.43
2018-12-19T04:31:13.571Z,21.73
2018-12-19T04:33:40.989Z,20.07
2018-12-19T04:36:08.468Z,20.30
2018-12-19T04:38:36.137Z,19.83
2018-12-19T04:41:03.561Z,20.93
2018-12-19T04:43:30.973Z,21.60
2018-12-19T04:45:58.399Z,21.20
2018-12-19T04:48:25.812Z,21.97
2018-12-19T04:50:53.239Z,21.37
2018-12-19T04:53:20.646Z,23.60
2018-12-19T04:55:48.056Z,24.07
2018-12-19T04:58:15.471Z,24.67
2018-12-19T05:00:42.893Z,23.67
2018-12-19T05:03:10.580Z,24.77
2018-12-19T05:05:38.002Z,25.87
2018-12-19T05:08:05.583Z,27.87
2018-12-19T05:10:32.989Z,25.20
2018-12-19T05:13:01.330Z,27.67
2018-12-19T05:15:29.018Z,23.63
2018-12-19T05:17:56.513Z,25.10
2018-12-19T05:20:23.916Z,24.70
2018-12-19T05:22:51.353Z,23.40
2018-12-19T05:25:18.772Z,26.13
2018-12-19T05:27:46.201Z,23.77
2018-12-19T05:30:13.604Z,23.60
2018-12-19T05:32:41.027Z,24.53
2018-12-19T05:35:08.504Z,24.37
2018-12-19T05:37:35.928Z,23.73
2018-12-19T05:40:04.225Z,22.90
2018-12-19T05:42:31.712Z,23.97
2018-12-19T05:44:59.142Z,22.83
2018-12-19T05:47:26.821Z,25.20
2018-12-19T05:49:54.609Z,23.47
2018-12-19T05:55:17.472Z,23.00
2018-12-19T05:57:45.316Z,21.47
2018-12-19T06:00:12.893Z,22.77
2018-12-19T06:02:40.407Z,23.50
2018-12-19T06:05:14.513Z,24.57
2018-12-19T06:07:41.941Z,24.47
2018-12-19T06:10:09.346Z,22.70
2018-12-19T06:12:36.796Z,23.40
2018-12-19T06:15:04.637Z,21.23
2018-12-19T06:17:32.070Z,22.27
2018-12-19T06:19:59.494Z,20.50
2018-12-19T06:22:26.908Z,22.57
2018-12-19T06:24:54.384Z,21.47
2018-12-19T06:27:21.849Z,21.90
2018-12-19T06:29:49.300Z,21.63
2018-12-19T06:32:16.699Z,21.17
2018-12-19T06:34:44.148Z,20.20
2018-12-19T06:37:11.556Z,23.10
2018-12-19T06:39:38.996Z,21.67
2018-12-19T06:42:06.416Z,21.93
2018-12-19T06:44:35.952Z,20.17
2018-12-19T06:47:03.513Z,22.10
2018-12-19T06:49:30.928Z,21.20
2018-12-19T06:51:58.332Z,19.33
2018-12-19T06:54:25.771Z,20.03
2018-12-19T06:56:53.160Z,18.50
2018-12-19T06:59:20.602Z,19.97
2018-12-19T07:01:48.009Z,19.83
2018-12-19T07:04:15.451Z,22.63
2018-12-19T07:06:42.854Z,20.00
2018-12-19T07:09:10.783Z,21.07
2018-12-19T07:11:38.183Z,20.57
2018-12-19T07:14:05.596Z,18.97
2018-12-19T07:16:33.028Z,20.63
2018-12-19T07:19:00.468Z,19.40
2018-12-19T07:21:27.896Z,20.93
2018-12-19T07:23:55.297Z,18.73
2018-12-19T07:26:22.724Z,20.23
2018-12-19T07:28:50.136Z,19.03
2018-12-19T07:31:17.561Z,18.90
2018-12-19T07:33:44.969Z,21.13
2018-12-19T07:36:12.403Z,19.33
2018-12-19T07:38:39.811Z,20.80
2018-12-19T07:41:07.229Z,21.03
2018-12-19T07:43:34.641Z,20.60
2018-12-19T07:46:02.062Z,20.97
2018-12-19T07:48:29.643Z,20.93
2018-12-19T07:50:57.055Z,20.17
2018-12-19T07:53:24.460Z,19.57
2018-12-19T07:55:52.157Z,19.13
2018-12-19T07:58:19.582Z,19.43
2018-12-19T08:00:46.989Z,19.67
2018-12-19T08:03:14.403Z,20.27
2018-12-19T08:05:41.813Z,20.37
2018-12-19T08:08:09.241Z,19.10
2018-12-19T08:10:36.659Z,20.30
2018-12-19T08:13:04.070Z,19.83
2018-12-19T08:15:31.476Z,18.90
2018-12-19T08:17:58.897Z,19.30
2018-12-19T08:20:26.300Z,19.30
2018-12-19T08:22:53.728Z,20.17
2018-12-19T08:25:21.139Z,19.53
2018-12-19T08:27:48.564Z,19.30
2018-12-19T08:30:17.878Z,19.57
2018-12-19T08:32:45.351Z,18.60
2018-12-19T08:35:12.760Z,18.87
2018-12-19T08:37:40.186Z,20.00
2018-12-19T08:40:07.661Z,21.27
2018-12-19T08:42:35.088Z,20.20
2018-12-19T08:45:02.502Z,19.60
2018-12-19T08:47:29.924Z,18.27
2018-12-19T08:49:57.340Z,18.17
2018-12-19T08:52:24.758Z,19.87
2018-12-19T08:54:52.181Z,20.30
2018-12-19T08:57:19.654Z,19.13
2018-12-19T08:59:47.117Z,18.73
2018-12-19T09:02:14.540Z,19.03
2018-12-19T09:04:41.952Z,43.80
2018-12-19T09:07:09.365Z,22.80
2018-12-19T09:09:36.776Z,20.83
2018-12-19T09:12:04.269Z,17.73
2018-12-19T09:14:31.698Z,16.07
2018-12-19T09:16:59.110Z,16.93
2018-12-19T09:19:26.529Z,14.30
2018-12-19T09:21:54.102Z,14.57
2018-12-19T09:24:21.533Z,17.40
2018-12-19T09:26:48.953Z,14.97
2018-12-19T09:29:16.368Z,14.17
2018-12-19T09:31:46.124Z,14.90
2018-12-19T09:34:14.585Z,13.83
2018-12-19T09:36:42.059Z,20.10
2018-12-19T09:39:09.479Z,15.23
2018-12-19T09:41:36.892Z,13.77
2018-12-19T09:44:04.372Z,14.53
2018-12-19T09:46:31.788Z,14.33
2018-12-19T09:48:59.228Z,14.50
2018-12-19T09:51:26.637Z,13.77
2018-12-19T09:53:54.055Z,15.50
2018-12-19T09:56:21.475Z,15.00
2018-12-19T09:58:48.903Z,13.97
2018-12-19T10:01:16.321Z,15.60
2018-12-19T10:03:43.739Z,14.70
2018-12-19T10:06:11.157Z,14.10
2018-12-19T10:08:38.568Z,14.40
2018-12-19T10:11:05.985Z,15.10
2018-12-19T10:13:33.445Z,13.40
2018-12-19T10:16:00.839Z,14.13
2018-12-19T10:18:28.255Z,14.33
2018-12-19T10:20:55.777Z,17.30
2018-12-19T10:23:23.191Z,14.07
2018-12-19T10:25:52.596Z,12.63
2018-12-19T10:28:21.973Z,13.50
2018-12-19T10:30:49.397Z,12.23
2018-12-19T10:33:16.826Z,11.50
2018-12-19T10:35:44.257Z,11.70
2018-12-19T10:38:11.663Z,11.30
2018-12-19T10:40:39.106Z,10.60
2018-12-19T10:43:06.524Z,10.93
2018-12-19T10:45:33.952Z,11.23
2018-12-19T10:48:01.373Z,10.73
2018-12-19T10:50:28.795Z,11.53
2018-12-19T10:52:56.213Z,11.63
2018-12-19T10:55:23.674Z,10.30
2018-12-19T10:57:51.075Z,11.50
2018-12-19T11:00:24.092Z,11.77
2018-12-19T11:02:51.504Z,13.07
2018-12-19T11:05:18.921Z,19.40
2018-12-19T11:07:46.343Z,12.17
2018-12-19T11:10:13.828Z,8.83
2018-12-19T11:12:41.339Z,9.00
2018-12-19T11:15:09.581Z,8.73
2018-12-19T11:17:36.999Z,9.73
2018-12-19T11:20:08.249Z,10.77
2018-12-19T11:22:35.669Z,9.97
2018-12-19T11:28:02.322Z,9.27
2018-12-19T11:30:30.161Z,8.77
2018-12-19T11:32:57.594Z,9.87
2018-12-19T11:35:24.995Z,8.40
2018-12-19T11:40:48.136Z,7.73
2018-12-19T11:43:15.559Z,7.47
2018-12-19T11:45:42.972Z,7.33
2018-12-19T11:48:10.380Z,7.90
2018-12-19T11:50:37.780Z,7.80
2018-12-19T11:53:05.204Z,8.17
2018-12-19T11:55:32.617Z,8.50
2018-12-19T11:58:00.044Z,9.10
2018-12-19T12:00:27.462Z,8.07
2018-12-19T12:02:54.973Z,8.17
2018-12-19T12:05:22.390Z,8.50
2018-12-19T12:07:49.800Z,8.70
2018-12-19T12:10:17.207Z,8.87
2018-12-19T12:12:44.612Z,8.73
2018-12-19T12:15:12.099Z,9.10
2018-12-19T12:17:39.504Z,9.67
2018-12-19T12:20:07.594Z,10.30
2018-12-19T12:22:34.999Z,9.70
2018-12-19T12:25:02.424Z,10.03
2018-12-19T12:27:29.828Z,9.83
2018-12-19T12:29:57.263Z,10.03
2018-12-19T12:32:24.660Z,9.87
2018-12-19T12:34:52.140Z,10.13
2018-12-19T12:37:19.566Z,9.63
2018-12-19T12:39:47.007Z,11.03
2018-12-19T12:42:14.412Z,9.93
2018-12-19T12:44:42.124Z,9.00
2018-12-19T12:47:09.696Z,9.80
2018-12-19T12:49:37.113Z,9.70
2018-12-19T12:52:04.524Z,8.97
2018-12-19T12:54:31.951Z,12.33
2018-12-19T12:57:00.278Z,8.43
2018-12-19T12:59:27.700Z,8.67
2018-12-19T13:01:55.102Z,7.43
2018-12-19T13:04:22.524Z,7.57
2018-12-19T13:06:49.940Z,6.70
2018-12-19T13:09:17.359Z,7.03
2018-12-19T13:11:44.768Z,7.00
2018-12-19T13:14:13.833Z,7.17
2018-12-19T13:16:41.239Z,6.70
2018-12-19T13:19:08.648Z,7.03
2018-12-19T13:21:36.155Z,6.97
2018-12-19T13:24:03.573Z,6.30
2018-12-19T13:26:30.992Z,6.67
2018-12-19T13:28:58.390Z,6.63
2018-12-19T13:31:25.805Z,6.50
2018-12-19T13:33:53.225Z,6.90
2018-12-19T13:36:20.680Z,7.10
2018-12-19T13:38:48.073Z,6.83
2018-12-19T13:41:15.508Z,7.03
2018-12-19T13:43:42.925Z,6.87
2018-12-19T13:46:10.344Z,6.57
2018-12-19T13:48:37.761Z,6.57
2018-12-19T13:51:05.195Z,7.00
2018-12-19T13:53:32.804Z,6.63
2018-12-19T13:56:00.204Z,6.30
2018-12-19T13:58:27.700Z,7.27
2018-12-19T14:00:56.060Z,6.90
2018-12-19T14:03:23.469Z,7.13
2018-12-19T14:05:50.889Z,7.40
2018-12-19T14:08:18.311Z,7.10
2018-12-19T14:10:46.110Z,7.60
2018-12-19T14:13:13.788Z,7.70
2018-12-19T14:15:41.194Z,8.03
2018-12-19T14:18:08.618Z,7.80
2018-12-19T14:20:36.021Z,8.33
2018-12-19T14:23:03.537Z,9.20
2018-12-19T14:25:30.944Z,9.13
2018-12-19T14:27:58.372Z,9.20
2018-12-19T14:30:25.780Z,8.53
2018-12-19T14:32:55.117Z,8.03
2018-12-19T14:35:22.553Z,9.90
2018-12-19T14:37:49.964Z,8.93
2018-12-19T14:40:17.384Z,8.87
2018-12-19T14:42:44.795Z,10.43
2018-12-19T14:45:12.368Z,10.97
2018-12-19T14:47:39.855Z,9.60
2018-12-19T14:50:07.387Z,9.63
2018-12-19T14:52:34.806Z,9.03
2018-12-19T14:55:02.210Z,9.73
2018-12-19T14:57:29.636Z,9.57
2018-12-19T14:59:57.041Z,9.33
2018-12-19T15:02:24.476Z,9.83
2018-12-19T15:04:51.896Z,11.40
2018-12-19T15:07:19.312Z,10.27
2018-12-19T15:09:46.727Z,10.37
2018-12-19T15:12:14.213Z,9.60
2018-12-19T15:14:41.622Z,9.67
2018-12-19T15:17:13.819Z,10.47
2018-12-19T15:19:38.456Z,9.37
2018-12-19T15:22:05.869Z,9.50
2018-12-19T15:24:33.292Z,10.03
2018-12-19T15:27:00.707Z,9.53
2018-12-19T15:29:28.120Z,10.30
2018-12-19T15:31:55.528Z,10.03
2018-12-19T15:34:22.948Z,10.93
2018-12-19T15:36:50.367Z,12.70
2018-12-19T15:39:17.875Z,10.97
2018-12-19T15:41:45.320Z,10.13
2018-12-19T15:44:12.739Z,9.73
2018-12-19T15:46:40.153Z,10.17
2018-12-19T15:49:07.601Z,9.93
2018-12-19T15:51:35.009Z,10.37
2018-12-19T15:54:02.439Z,10.93
2018-12-19T15:56:29.848Z,10.73
2018-12-19T15:58:57.279Z,10.73
2018-12-19T16:01:24.698Z,10.13
2018-12-19T16:03:52.147Z,11.27
2018-12-19T16:06:19.561Z,11.53
2018-12-19T16:08:46.988Z,11.60
2018-12-19T16:11:14.424Z,10.90
2018-12-19T16:13:42.004Z,10.97
2018-12-19T16:16:09.425Z,11.10
2018-12-19T16:18:36.994Z,11.37
2018-12-19T16:21:04.403Z,12.03
2018-12-19T16:23:31.845Z,12.77
2018-12-19T16:25:59.270Z,11.87
2018-12-19T16:28:26.687Z,13.30
2018-12-19T16:30:54.128Z,12.90
2018-12-19T16:33:21.698Z,13.07
2018-12-19T16:35:49.144Z,14.57
2018-12-19T16:38:16.589Z,13.10
2018-12-19T16:40:44.063Z,13.60
2018-12-19T16:43:11.674Z,13.63
2018-12-19T16:45:39.088Z,13.57
2018-12-19T16:48:06.501Z,15.17
2018-12-19T16:50:33.930Z,13.80
2018-12-19T16:53:01.361Z,13.90
2018-12-19T16:55:28.801Z,13.77
2018-12-19T16:57:56.216Z,14.07
2018-12-19T17:00:23.649Z,15.10
2018-12-19T17:02:51.067Z,15.00
2018-12-19T17:05:18.507Z,15.10
2018-12-19T17:07:45.927Z,15.27
2018-12-19T17:10:13.432Z,15.93
2018-12-19T17:12:40.865Z,15.40
2018-12-19T17:15:09.528Z,15.37
2018-12-19T17:17:36.941Z,14.73
2018-12-19T17:20:06.047Z,14.87
2018-12-19T17:22:33.475Z,15.60
2018-12-19T17:25:01.019Z,15.97
2018-12-19T17:27:28.444Z,14.70
2018-12-19T17:29:55.869Z,14.63
2018-12-19T17:32:23.956Z,15.87
2018-12-19T17:34:51.403Z,15.83
2018-12-19T17:37:18.841Z,16.50
2018-12-19T17:39:46.258Z,16.37
2018-12-19T17:42:13.684Z,15.77
2018-12-19T17:44:41.105Z,14.80
2018-12-19T17:47:09.465Z,16.30
2018-12-19T17:49:37.119Z,14.67
2018-12-19T17:52:05.463Z,16.43
2018-12-19T17:54:32.973Z,16.23
2018-12-19T17:57:00.501Z,17.13
2018-12-19T17:59:27.924Z,16.43
2018-12-19T18:01:55.411Z,16.27
2018-12-19T18:04:22.828Z,16.50
2018-12-19T18:06:50.256Z,18.37
2018-12-19T18:09:17.669Z,17.40
2018-12-19T18:11:45.161Z,15.70
2018-12-19T18:14:12.928Z,15.17
2018-12-19T18:16:40.405Z,16.57
2018-12-19T18:19:07.826Z,15.40
2018-12-19T18:21:35.247Z,15.40
2018-12-19T18:24:04.664Z,15.37
2018-12-19T18:26:32.083Z,16.93
2018-12-19T18:28:59.502Z,15.50
2018-12-19T18:31:27.006Z,15.73
2018-12-19T18:33:54.412Z,17.97
2018-12-19T18:36:21.876Z,16.73
2018-12-19T18:38:49.585Z,17.40
2018-12-19T18:41:17.937Z,16.50
2018-12-19T18:43:45.348Z,16.47
2018-12-19T18:46:12.760Z,16.33
2018-12-19T18:48:40.176Z,23.77
2018-12-19T18:51:07.598Z,17.70
2018-12-19T18:53:35.021Z,16.70
2018-12-19T18:56:02.435Z,17.90
2018-12-19T18:58:29.885Z,17.37
2018-12-19T19:00:57.395Z,16.53
2018-12-19T19:03:24.864Z,17.13
2018-12-19T19:05:52.317Z,17.63
2018-12-19T19:08:19.745Z,16.50
2018-12-19T19:10:47.225Z,16.50
2018-12-19T19:13:19.665Z,16.80
2018-12-19T19:15:44.053Z,17.93
2018-12-19T19:18:11.551Z,16.43
2018-12-19T19:20:39.011Z,17.27
2018-12-19T19:23:06.407Z,16.27
2018-12-19T19:25:33.839Z,17.00
2018-12-19T19:28:01.276Z,16.67
2018-12-19T19:30:28.702Z,17.00
2018-12-19T19:32:56.296Z,16.40
2018-12-19T19:35:23.720Z,16.43
2018-12-19T19:37:51.128Z,42.97
2018-12-19T19:40:18.546Z,17.60
2018-12-19T19:42:46.000Z,17.50
2018-12-19T19:45:13.563Z,16.40
2018-12-19T19:47:40.967Z,17.30
2018-12-19T19:50:08.391Z,17.17
2018-12-19T19:52:35.818Z,16.47
2018-12-19T19:55:03.364Z,17.40
2018-12-19T19:57:30.787Z,16.70
2018-12-19T19:59:59.263Z,16.57
2018-12-19T20:02:26.657Z,15.93
2018-12-19T20:04:54.067Z,17.33
2018-12-19T20:07:21.507Z,17.33
2018-12-19T20:09:48.934Z,17.23
2018-12-19T20:12:16.446Z,17.07
2018-12-19T20:14:44.083Z,17.47
2018-12-19T20:17:13.661Z,17.03
2018-12-19T20:19:41.292Z,18.17
2018-12-19T20:22:09.780Z,17.50
2018-12-19T20:24:37.216Z,18.17
2018-12-19T20:27:04.655Z,21.03
2018-12-19T20:29:32.054Z,36.37
2018-12-19T20:31:59.475Z,19.07
2018-12-19T20:34:26.893Z,19.20
2018-12-19T20:36:54.311Z,17.30
2018-12-19T20:39:21.741Z,19.23
2018-12-19T20:41:49.175Z,18.97
2018-12-19T20:44:16.631Z,17.40
2018-12-19T20:46:44.050Z,18.20
2018-12-19T20:49:11.497Z,19.30
2018-12-19T20:51:39.002Z,19.07
2018-12-19T20:54:06.440Z,18.90
2018-12-19T20:56:33.979Z,19.67
2018-12-19T20:59:01.503Z,21.07
2018-12-19T21:01:28.975Z,20.00
2018-12-19T21:03:56.396Z,23.57
2018-12-19T21:06:23.813Z,23.57
2018-12-19T21:08:51.249Z,23.80
2018-12-19T21:11:18.665Z,26.23
2018-12-19T21:13:46.823Z,26.50
2018-12-19T21:16:14.638Z,28.80
2018-12-19T21:18:46.754Z,30.93
2018-12-19T21:21:14.311Z,29.70
2018-12-19T21:23:41.745Z,28.80
2018-12-19T21:26:09.169Z,30.23
2018-12-19T21:28:36.605Z,33.50
2018-12-19T21:31:04.098Z,32.90
2018-12-19T21:33:31.524Z,30.80
2018-12-19T21:35:58.937Z,32.83
2018-12-19T21:38:26.375Z,33.00
2018-12-19T21:40:53.824Z,33.87
2018-12-19T21:43:21.321Z,31.60
2018-12-19T21:45:51.949Z,33.63
2018-12-19T21:48:18.309Z,32.20
2018-12-19T21:50:45.716Z,32.43
2018-12-19T21:53:13.165Z,34.70
2018-12-19T21:55:40.580Z,32.00
2018-12-19T21:58:08.009Z,34.27
2018-12-19T22:00:36.680Z,35.60
2018-12-19T22:03:10.489Z,37.20
2018-12-19T22:05:37.905Z,32.57
2018-12-19T22:08:05.441Z,33.30
2018-12-19T22:10:32.964Z,34.77
2018-12-19T22:13:00.378Z,30.83
2018-12-19T22:15:27.805Z,32.47
2018-12-19T22:18:00.765Z,33.97
2018-12-19T22:20:28.184Z,31.87
2018-12-19T22:22:55.733Z,33.80
2018-12-19T22:25:23.188Z,30.70
2018-12-19T22:27:50.619Z,31.60
2018-12-19T22:30:18.184Z,30.53
2018-12-19T22:32:45.647Z,32.50
2018-12-19T22:35:13.207Z,29.80
2018-12-19T22:37:40.709Z,31.47
2018-12-19T22:40:08.926Z,28.67
2018-12-19T22:42:36.412Z,29.43
2018-12-19T22:45:04.744Z,29.40
2018-12-19T22:47:32.176Z,30.60
2018-12-19T22:49:59.592Z,27.47
2018-12-19T22:52:27.020Z,28.03
2018-12-19T22:54:54.441Z,29.63
2018-12-19T22:57:21.870Z,28.77
2018-12-19T22:59:49.416Z,29.33
2018-12-19T23:02:22.499Z,28.93
2018-12-19T23:04:50.019Z,27.50
2018-12-19T23:07:17.449Z,27.17
2018-12-19T23:09:44.875Z,25.27
2018-12-19T23:12:12.382Z,26.23
2018-12-19T23:14:40.021Z,28.03
2018-12-19T23:17:13.130Z,26.13
2018-12-19T23:19:40.528Z,27.60
2018-12-19T23:22:07.956Z,26.27
2018-12-19T23:24:35.394Z,28.00
2018-12-19T23:27:02.942Z,27.70
2018-12-19T23:29:30.437Z,27.37
2018-12-19T23:31:57.940Z,28.33
2018-12-19T23:34:25.353Z,30.63
2018-12-19T23:36:52.812Z,29.63
2018-12-19T23:39:20.305Z,28.60
2018-12-19T23:41:47.818Z,27.17
2018-12-19T23:44:22.518Z,28.97
2018-12-19T23:46:46.691Z,29.13
2018-12-19T23:49:14.109Z,28.93
2018-12-19T23:51:41.544Z,26.87
2018-12-19T23:54:08.985Z,27.80
2018-12-19T23:56:36.510Z,27.10
2018-12-19T23:59:04.025Z,27.60
